N388LS EGSS-EDDH
Flight info
| Callsign | N388LS |
|---|---|
| Flight time | N/A |
| Altitude | 39000 |
| Route | CLN P44 SOMVA DCT MAVAS DCT ANDIK M105 RIBSO RIBSO7A |
| Aircraft | L101/H-SDFGHIRWXYZ/SB1 |
Departure
| Time | 2026-04-30 18:11 |
|---|---|
| Airport | London Stansted Airport (EGSS) |
Arrival
| Time | N/A |
|---|---|
| Airport | Hamburg Helmut Schmidt Airport (EDDH) |
| Time | Latitude | Longitude | Altitude | Speed | Heading |
|---|---|---|---|---|---|
| 2026-04-30 17:39 | 51.89640 | 0.26560 | 385 ft | 0 kts | 42° |
| 2026-04-30 17:54 | 51.89594 | 0.26492 | 366 ft | 4 kts | 23° |
| 2026-04-30 17:55 | 51.89556 | 0.26524 | 364 ft | 0 kts | 313° |
| 2026-04-30 18:00 | 51.89585 | 0.26474 | 364 ft | 0 kts | 313° |
| 2026-04-30 18:01 | 51.89586 | 0.26472 | 364 ft | 2 kts | 313° |
| 2026-04-30 18:02 | 51.89667 | 0.26333 | 362 ft | 12 kts | 313° |
| 2026-04-30 18:02 | 51.89612 | 0.25931 | 366 ft | 21 kts | 224° |
| 2026-04-30 18:03 | 51.89255 | 0.25392 | 362 ft | 16 kts | 224° |
| 2026-04-30 18:04 | 51.88975 | 0.24978 | 365 ft | 26 kts | 223° |
| 2026-04-30 18:05 | 51.88467 | 0.24208 | 357 ft | 31 kts | 223° |
| 2026-04-30 18:06 | 51.88019 | 0.23543 | 354 ft | 30 kts | 223° |
| 2026-04-30 18:07 | 51.87767 | 0.22873 | 349 ft | 17 kts | 239° |
| 2026-04-30 18:08 | 51.87404 | 0.22280 | 328 ft | 17 kts | 259° |
| 2026-04-30 18:09 | 51.87432 | 0.22152 | 329 ft | 0 kts | 310° |
| 2026-04-30 18:10 | 51.87544 | 0.22058 | 325 ft | 14 kts | 24° |
| 2026-04-30 18:11 | 51.89999 | 0.25502 | 2166 ft | 180 kts | 54° |
| 2026-04-30 18:11 | 51.92286 | 0.31303 | 3845 ft | 242 kts | 88° |
| 2026-04-30 18:12 | 51.90207 | 0.38712 | 4584 ft | 248 kts | 130° |
| 2026-04-30 18:13 | 51.88159 | 0.43483 | 6452 ft | 256 kts | 122° |
| 2026-04-30 18:13 | 51.85789 | 0.51271 | 9425 ft | 274 kts | 117° |
| 2026-04-30 18:14 | 51.84221 | 0.56813 | 9875 ft | 268 kts | 117° |
| 2026-04-30 18:15 | 51.82408 | 0.65386 | 10640 ft | 275 kts | 96° |
| 2026-04-30 18:15 | 51.83215 | 0.74761 | 11160 ft | 286 kts | 84° |
| 2026-04-30 18:16 | 51.83694 | 0.81613 | 11408 ft | 336 kts | 89° |
| 2026-04-30 18:16 | 51.83949 | 0.89719 | 11856 ft | 378 kts | 90° |
| 2026-04-30 18:17 | 51.84068 | 0.93969 | 12727 ft | 376 kts | 90° |
| 2026-04-30 18:17 | 51.84209 | 0.98160 | 13844 ft | 372 kts | 89° |
| 2026-04-30 18:17 | 51.84536 | 1.06700 | 15004 ft | 390 kts | 88° |
| 2026-04-30 18:18 | 51.84708 | 1.11077 | 15872 ft | 391 kts | 89° |
| 2026-04-30 18:18 | 51.84941 | 1.15503 | 16527 ft | 399 kts | 83° |
| 2026-04-30 18:18 | 51.85581 | 1.19920 | 17293 ft | 407 kts | 75° |
| 2026-04-30 18:18 | 51.86606 | 1.24253 | 18006 ft | 415 kts | 69° |
| 2026-04-30 18:19 | 51.87865 | 1.28499 | 18750 ft | 421 kts | 65° |
| 2026-04-30 18:19 | 51.89227 | 1.32711 | 19524 ft | 424 kts | 64° |
| 2026-04-30 18:19 | 51.90590 | 1.36906 | 20292 ft | 428 kts | 65° |
| 2026-04-30 18:19 | 51.91936 | 1.41231 | 21097 ft | 431 kts | 66° |
| 2026-04-30 18:20 | 51.93233 | 1.45654 | 21979 ft | 435 kts | 68° |
| 2026-04-30 18:20 | 51.94476 | 1.50142 | 22843 ft | 439 kts | 69° |
| 2026-04-30 18:20 | 51.95687 | 1.54705 | 23699 ft | 443 kts | 69° |
| 2026-04-30 18:20 | 51.96886 | 1.59335 | 24418 ft | 447 kts | 70° |
| 2026-04-30 18:21 | 51.98089 | 1.64025 | 25132 ft | 451 kts | 70° |
| 2026-04-30 18:21 | 51.99304 | 1.68746 | 25730 ft | 458 kts | 69° |
| 2026-04-30 18:21 | 52.00641 | 1.73543 | 25903 ft | 475 kts | 66° |
| 2026-04-30 18:21 | 52.02168 | 1.78402 | 26059 ft | 490 kts | 64° |
| 2026-04-30 18:22 | 52.03810 | 1.83203 | 26676 ft | 493 kts | 62° |
| 2026-04-30 18:22 | 52.07212 | 1.92695 | 28804 ft | 482 kts | 62° |
| 2026-04-30 18:22 | 52.08875 | 1.97402 | 29780 ft | 479 kts | 63° |
| 2026-04-30 18:23 | 52.10499 | 2.02131 | 30690 ft | 477 kts | 64° |
| 2026-04-30 18:23 | 52.12078 | 2.06850 | 31582 ft | 474 kts | 64° |
| 2026-04-30 18:23 | 52.13623 | 2.11563 | 32505 ft | 471 kts | 65° |
| 2026-04-30 18:23 | 52.15149 | 2.16271 | 33457 ft | 468 kts | 65° |
| 2026-04-30 18:24 | 52.18160 | 2.25603 | 35053 ft | 464 kts | 65° |
| 2026-04-30 18:24 | 52.19665 | 2.30253 | 35731 ft | 463 kts | 65° |
| 2026-04-30 18:24 | 52.21176 | 2.34908 | 36420 ft | 463 kts | 64° |
| 2026-04-30 18:25 | 52.22665 | 2.39484 | 37120 ft | 463 kts | 64° |
| 2026-04-30 18:25 | 52.25687 | 2.48756 | 38618 ft | 460 kts | 64° |
| 2026-04-30 18:25 | 52.27193 | 2.53392 | 39092 ft | 467 kts | 64° |
| 2026-04-30 18:26 | 52.30243 | 2.62831 | 39231 ft | 468 kts | 65° |
| 2026-04-30 18:26 | 52.31623 | 2.67637 | 39244 ft | 466 kts | 70° |
| 2026-04-30 18:27 | 52.34403 | 2.82688 | 39303 ft | 462 kts | 79° |
| 2026-04-30 18:28 | 52.36587 | 2.97573 | 39266 ft | 432 kts | 78° |
| 2026-04-30 18:28 | 52.38943 | 3.11646 | 39272 ft | 426 kts | 76° |
| 2026-04-30 18:29 | 52.42206 | 3.30277 | 39277 ft | 426 kts | 76° |
| 2026-04-30 18:30 | 52.45376 | 3.48917 | 39289 ft | 425 kts | 76° |
| 2026-04-30 18:31 | 52.47728 | 3.62922 | 39291 ft | 423 kts | 76° |
| 2026-04-30 18:32 | 52.50060 | 3.76893 | 39286 ft | 423 kts | 77° |
| 2026-04-30 18:33 | 52.52380 | 3.90899 | 39294 ft | 423 kts | 76° |
| 2026-04-30 18:33 | 52.54670 | 4.04848 | 39300 ft | 422 kts | 76° |
| 2026-04-30 18:34 | 52.56946 | 4.18816 | 39298 ft | 421 kts | 76° |
| 2026-04-30 18:35 | 52.58452 | 4.28125 | 39304 ft | 421 kts | 77° |
| 2026-04-30 18:35 | 52.59953 | 4.37447 | 39308 ft | 422 kts | 77° |
| 2026-04-30 18:36 | 52.62179 | 4.51383 | 39309 ft | 421 kts | 76° |
| 2026-04-30 18:37 | 52.64397 | 4.65380 | 39321 ft | 421 kts | 76° |
| 2026-04-30 18:37 | 52.65867 | 4.74728 | 39260 ft | 421 kts | 77° |
| 2026-04-30 18:38 | 52.67328 | 4.84058 | 39315 ft | 421 kts | 77° |
| 2026-04-30 18:38 | 52.68782 | 4.93410 | 39363 ft | 420 kts | 77° |
| 2026-04-30 18:39 | 52.70231 | 5.02781 | 39330 ft | 423 kts | 76° |
| 2026-04-30 18:39 | 52.71665 | 5.12106 | 39378 ft | 419 kts | 77° |
| 2026-04-30 18:40 | 52.73192 | 5.21302 | 39328 ft | 419 kts | 71° |
| 2026-04-30 18:40 | 52.75484 | 5.30136 | 39337 ft | 419 kts | 65° |
| 2026-04-30 18:41 | 52.78155 | 5.38706 | 39332 ft | 420 kts | 64° |
| 2026-04-30 18:41 | 52.80813 | 5.47292 | 39337 ft | 419 kts | 64° |
| 2026-04-30 18:42 | 52.83342 | 5.55971 | 39333 ft | 419 kts | 65° |
| 2026-04-30 18:42 | 52.86994 | 5.69085 | 39339 ft | 418 kts | 66° |
| 2026-04-30 18:45 | 53.00375 | 6.17507 | 39353 ft | 421 kts | 65° |
| 2026-04-30 18:46 | 53.02792 | 6.26345 | 39354 ft | 421 kts | 65° |
| 2026-04-30 18:46 | 53.05200 | 6.35189 | 39364 ft | 420 kts | 65° |
| 2026-04-30 18:47 | 53.07603 | 6.44045 | 39364 ft | 420 kts | 65° |
| 2026-04-30 18:47 | 53.10008 | 6.52944 | 39380 ft | 423 kts | 65° |
| 2026-04-30 18:48 | 53.12403 | 6.61835 | 39373 ft | 423 kts | 65° |
| 2026-04-30 18:48 | 53.14804 | 6.70786 | 39371 ft | 421 kts | 65° |
| 2026-04-30 18:49 | 53.17184 | 6.79704 | 39373 ft | 421 kts | 65° |
| 2026-04-30 18:49 | 53.19560 | 6.88634 | 39381 ft | 420 kts | 65° |
| 2026-04-30 18:50 | 53.21927 | 6.97564 | 39384 ft | 421 kts | 66° |
| 2026-04-30 18:50 | 53.23113 | 7.02047 | 39135 ft | 425 kts | 65° |
| 2026-04-30 18:50 | 53.24305 | 7.06568 | 38503 ft | 424 kts | 66° |
| 2026-04-30 18:50 | 53.25473 | 7.11005 | 37870 ft | 421 kts | 66° |
| 2026-04-30 18:51 | 53.26643 | 7.15464 | 37270 ft | 417 kts | 65° |
| 2026-04-30 18:51 | 53.27809 | 7.19917 | 36691 ft | 423 kts | 65° |
| 2026-04-30 18:51 | 53.29023 | 7.24546 | 36121 ft | 442 kts | 65° |
| 2026-04-30 18:51 | 53.30253 | 7.29251 | 35510 ft | 439 kts | 65° |
| 2026-04-30 18:52 | 53.31469 | 7.33915 | 34961 ft | 434 kts | 65° |
| 2026-04-30 18:52 | 53.32664 | 7.38513 | 34435 ft | 429 kts | 65° |
| 2026-04-30 18:52 | 53.33853 | 7.43099 | 33825 ft | 429 kts | 65° |
| 2026-04-30 18:52 | 53.35027 | 7.47633 | 33229 ft | 429 kts | 66° |
| 2026-04-30 18:53 | 53.36212 | 7.52217 | 32660 ft | 430 kts | 65° |
| 2026-04-30 18:53 | 53.37396 | 7.56806 | 32092 ft | 428 kts | 66° |
| 2026-04-30 18:53 | 53.38573 | 7.61376 | 31528 ft | 424 kts | 66° |
| 2026-04-30 18:53 | 53.39736 | 7.65908 | 30984 ft | 420 kts | 66° |
| 2026-04-30 18:54 | 53.40498 | 7.68881 | 30626 ft | 418 kts | 66° |
| 2026-04-30 18:54 | 53.41637 | 7.73330 | 30029 ft | 414 kts | 66° |
| 2026-04-30 18:54 | 53.42766 | 7.77753 | 29398 ft | 410 kts | 66° |
| 2026-04-30 18:54 | 53.43883 | 7.82131 | 28785 ft | 405 kts | 66° |
| 2026-04-30 18:55 | 53.45339 | 7.87852 | 28016 ft | 400 kts | 66° |
| 2026-04-30 18:55 | 53.47148 | 7.94987 | 27044 ft | 393 kts | 66° |
| 2026-04-30 18:55 | 53.48212 | 7.99196 | 26467 ft | 389 kts | 66° |
| 2026-04-30 18:56 | 53.50304 | 8.07485 | 25497 ft | 382 kts | 66° |
| 2026-04-30 18:56 | 53.51336 | 8.11587 | 25085 ft | 379 kts | 66° |
| 2026-04-30 18:56 | 53.52350 | 8.15623 | 24689 ft | 377 kts | 66° |
| 2026-04-30 18:57 | 53.54371 | 8.23693 | 23907 ft | 372 kts | 67° |
| 2026-04-30 18:57 | 53.55368 | 8.27687 | 23455 ft | 369 kts | 67° |
| 2026-04-30 18:57 | 53.56356 | 8.31652 | 23054 ft | 367 kts | 66° |
| 2026-04-30 18:58 | 53.58305 | 8.39490 | 22251 ft | 360 kts | 67° |
| 2026-04-30 18:58 | 53.59267 | 8.43368 | 21864 ft | 357 kts | 67° |
| 2026-04-30 18:58 | 53.60219 | 8.47216 | 21471 ft | 355 kts | 67° |
| 2026-04-30 18:59 | 53.62102 | 8.54844 | 20728 ft | 350 kts | 67° |
| 2026-04-30 19:00 | 53.64855 | 8.66050 | 19415 ft | 342 kts | 68° |
| 2026-04-30 19:00 | 53.65759 | 8.69743 | 19002 ft | 339 kts | 68° |
| 2026-04-30 19:00 | 53.67544 | 8.77054 | 18066 ft | 334 kts | 68° |
| 2026-04-30 19:01 | 53.69303 | 8.84276 | 17137 ft | 330 kts | 69° |
| 2026-04-30 19:01 | 53.70159 | 8.87802 | 16684 ft | 327 kts | 68° |
| 2026-04-30 19:02 | 53.71871 | 8.94862 | 15732 ft | 323 kts | 68° |
| 2026-04-30 19:02 | 53.73473 | 9.01608 | 14850 ft | 294 kts | 72° |
| 2026-04-30 19:03 | 53.74733 | 9.07827 | 14051 ft | 270 kts | 69° |
| 2026-04-30 19:03 | 53.76194 | 9.13422 | 13259 ft | 251 kts | 67° |
| 2026-04-30 19:04 | 53.77664 | 9.18664 | 12621 ft | 244 kts | 66° |
| 2026-04-30 19:04 | 53.79159 | 9.23866 | 12450 ft | 246 kts | 65° |
| 2026-04-30 19:05 | 53.80662 | 9.29103 | 12433 ft | 247 kts | 65° |
| 2026-04-30 19:05 | 53.82166 | 9.34350 | 12428 ft | 248 kts | 65° |
| 2026-04-30 19:06 | 53.82405 | 9.39919 | 12382 ft | 246 kts | 113° |
| 2026-04-30 19:06 | 53.81378 | 9.42192 | 12407 ft | 251 kts | 139° |
| 2026-04-30 19:06 | 53.77959 | 9.43427 | 12422 ft | 270 kts | 190° |
| 2026-04-30 19:07 | 53.74462 | 9.40774 | 12451 ft | 278 kts | 205° |
| 2026-04-30 19:07 | 53.72783 | 9.39155 | 12436 ft | 277 kts | 206° |
| 2026-04-30 19:08 | 53.69914 | 9.34919 | 12376 ft | 282 kts | 242° |
| 2026-04-30 19:08 | 53.69724 | 9.28530 | 12413 ft | 281 kts | 294° |
| 2026-04-30 19:08 | 53.70791 | 9.25823 | 12419 ft | 276 kts | 321° |
| 2026-04-30 19:09 | 53.74211 | 9.23814 | 12281 ft | 261 kts | 11° |
| 2026-04-30 19:09 | 53.75950 | 9.24576 | 12080 ft | 256 kts | 28° |
| 2026-04-30 19:09 | 53.77441 | 9.26156 | 11849 ft | 251 kts | 41° |
| 2026-04-30 19:10 | 53.79984 | 9.30151 | 11406 ft | 248 kts | 48° |
| 2026-04-30 19:10 | 53.82302 | 9.34395 | 11401 ft | 246 kts | 62° |
| 2026-04-30 19:11 | 53.82808 | 9.37098 | 11365 ft | 242 kts | 88° |
| 2026-04-30 19:11 | 53.81403 | 9.42054 | 11392 ft | 249 kts | 142° |
| 2026-04-30 19:11 | 53.79789 | 9.43179 | 11412 ft | 257 kts | 168° |
| 2026-04-30 19:12 | 53.77991 | 9.42951 | 11433 ft | 265 kts | 193° |
| 2026-04-30 19:12 | 53.76268 | 9.41766 | 11464 ft | 269 kts | 201° |
| 2026-04-30 19:12 | 53.74581 | 9.40451 | 11462 ft | 271 kts | 201° |
| 2026-04-30 19:13 | 53.71177 | 9.37745 | 11427 ft | 270 kts | 202° |
| 2026-04-30 19:13 | 53.67787 | 9.34995 | 11405 ft | 271 kts | 208° |
| 2026-04-30 19:13 | 53.66405 | 9.32814 | 11367 ft | 276 kts | 235° |
| 2026-04-30 19:14 | 53.65701 | 9.29829 | 11371 ft | 277 kts | 262° |
| 2026-04-30 19:14 | 53.65813 | 9.26612 | 11403 ft | 276 kts | 288° |
| 2026-04-30 19:14 | 53.66713 | 9.23806 | 11410 ft | 272 kts | 315° |
| 2026-04-30 19:14 | 53.68209 | 9.21953 | 11420 ft | 265 kts | 341° |
| 2026-04-30 19:15 | 53.69980 | 9.21408 | 11427 ft | 257 kts | 8° |
| 2026-04-30 19:15 | 53.73155 | 9.23701 | 11459 ft | 250 kts | 39° |
| 2026-04-30 19:15 | 53.74544 | 9.25462 | 11447 ft | 250 kts | 40° |
| 2026-04-30 19:16 | 53.75937 | 9.27230 | 11434 ft | 250 kts | 40° |
| 2026-04-30 19:16 | 53.77327 | 9.28987 | 11428 ft | 250 kts | 40° |
| 2026-04-30 19:16 | 53.80097 | 9.32490 | 11432 ft | 250 kts | 40° |
| 2026-04-30 19:17 | 53.81489 | 9.34251 | 11411 ft | 250 kts | 40° |
| 2026-04-30 19:17 | 53.83123 | 9.39129 | 10997 ft | 246 kts | 89° |
| 2026-04-30 19:17 | 53.82781 | 9.41923 | 10622 ft | 244 kts | 115° |
| 2026-04-30 19:18 | 53.80861 | 9.45384 | 10050 ft | 246 kts | 140° |
| 2026-04-30 19:18 | 53.78961 | 9.47579 | 9564 ft | 248 kts | 143° |
| 2026-04-30 19:18 | 53.77498 | 9.49142 | 9164 ft | 247 kts | 144° |
| 2026-04-30 19:19 | 53.76042 | 9.50667 | 8786 ft | 245 kts | 145° |
| 2026-04-30 19:19 | 53.74605 | 9.52158 | 8580 ft | 241 kts | 145° |
| 2026-04-30 19:19 | 53.71775 | 9.55156 | 8320 ft | 241 kts | 137° |
| 2026-04-30 19:20 | 53.70730 | 9.57357 | 7789 ft | 241 kts | 115° |
| 2026-04-30 19:20 | 53.70111 | 9.59878 | 7691 ft | 225 kts | 107° |
| 2026-04-30 19:20 | 53.69491 | 9.65126 | 7116 ft | 234 kts | 80° |
| 2026-04-30 19:21 | 53.70159 | 9.67604 | 6715 ft | 232 kts | 51° |
| 2026-04-30 19:21 | 53.73047 | 9.69416 | 6416 ft | 241 kts | 352° |
| 2026-04-30 19:22 | 53.75618 | 9.65906 | 6160 ft | 254 kts | 293° |
| 2026-04-30 19:22 | 53.74054 | 9.58246 | 5837 ft | 245 kts | 204° |